Time;durP1;ratioP1;P1;durP2;ratioP2;P2;SDS_P1;SDS_P2;PMS_P1;PMS_P2;Temp;Humidity;BMP_temperature;BMP_pressure;BME280_temperature;BME280_humidity;BME280_pressure;Samples;Min_cycle;Max_cycle;Signal;HPM_P1;HPM_P2
2021/12/08 00:01:13;;;;;;;15.00;9.93;;;;;;;1.08;66.61;93784.17;1685170;83;21500;-57
2021/12/08 00:03:40;;;;;;;16.35;11.73;;;;;;;1.06;65.90;93778.41;1691440;84;21044;-58
2021/12/08 00:06:07;;;;;;;16.07;10.82;;;;;;;1.02;66.28;93775.56;1690278;83;22089;-57
2021/12/08 00:08:34;;;;;;;15.18;11.18;;;;;;;1.10;66.16;93777.75;1680903;84;21078;-59
2021/12/08 00:13:33;;;;;;;18.75;12.70;;;;;;;0.99;65.78;93786.61;1693030;84;21121;-57
2021/12/08 00:16:04;;;;;;;17.82;12.90;;;;;;;1.00;65.81;93790.85;1686627;83;21036;-57
2021/12/08 00:18:33;;;;;;;16.62;11.43;;;;;;;1.03;65.77;93779.23;1683892;84;21025;-57
2021/12/08 00:21:03;;;;;;;18.52;12.45;;;;;;;0.98;65.47;93782.37;1694278;83;21085;-57
2021/12/08 00:23:30;;;;;;;16.60;11.95;;;;;;;0.92;65.54;93784.02;1689919;83;21535;-57
2021/12/08 00:25:59;;;;;;;17.50;11.75;;;;;;;0.92;65.78;93777.25;1698332;83;21576;-58
2021/12/08 00:28:25;;;;;;;21.17;12.37;;;;;;;0.87;66.07;93777.72;1701691;83;21102;-56
2021/12/08 00:30:56;;;;;;;18.02;12.45;;;;;;;0.77;66.49;93771.86;1686497;83;21058;-57
2021/12/08 00:33:23;;;;;;;15.63;11.25;;;;;;;0.75;66.96;93777.52;1700077;83;21038;-57
2021/12/08 00:35:52;;;;;;;18.10;12.25;;;;;;;0.79;66.72;93782.30;1701735;83;21124;-59
2021/12/08 00:38:19;;;;;;;19.87;12.35;;;;;;;0.79;66.82;93783.64;1675071;84;21626;-57
2021/12/08 00:40:50;;;;;;;19.00;13.90;;;;;;;0.80;67.07;93779.16;1687949;84;21054;-58
2021/12/08 00:43:18;;;;;;;29.67;17.60;;;;;;;0.89;67.06;93771.88;1697464;83;21019;-57
2021/12/08 00:45:46;;;;;;;42.85;24.27;;;;;;;0.95;66.83;93777.78;1697404;83;21339;-57
2021/12/08 00:48:13;;;;;;;39.90;22.52;;;;;;;0.93;66.59;93780.73;1706239;83;21053;-57
2021/12/08 00:50:40;;;;;;;37.40;19.90;;;;;;;0.89;66.88;93788.91;1696904;83;21164;-56
2021/12/08 00:53:07;;;;;;;39.15;19.32;;;;;;;0.83;66.90;93781.65;1662598;85;21061;-56
2021/12/08 00:55:34;;;;;;;36.93;19.23;;;;;;;0.75;67.15;93789.10;1640929;86;21075;-57
2021/12/08 00:58:00;;;;;;;25.95;14.87;;;;;;;0.69;67.45;93805.63;1621452;87;21068;-58
2021/12/08 01:00:32;;;;;;;20.27;13.35;;;;;;;0.61;67.71;93808.23;1620524;87;21064;-57
2021/12/08 01:02:59;;;;;;;17.32;10.65;;;;;;;0.56;68.21;93807.34;1672163;84;21125;-57
2021/12/08 01:05:33;;;;;;;19.77;13.15;;;;;;;0.64;68.24;93812.85;1681491;84;21556;-57
2021/12/08 01:08:00;;;;;;;18.95;12.88;;;;;;;0.66;68.20;93811.08;1680469;84;21010;-57
2021/12/08 01:10:28;;;;;;;25.45;16.12;;;;;;;0.66;68.23;93802.38;1680418;84;21108;-58
2021/12/08 01:12:55;;;;;;;37.98;21.73;;;;;;;0.67;68.41;93803.14;1679035;83;21066;-57
2021/12/08 01:15:24;;;;;;;35.63;20.00;;;;;;;0.67;68.31;93803.14;1641286;86;21163;-56
2021/12/08 01:17:51;;;;;;;29.20;18.10;;;;;;;0.60;68.31;93801.28;1620697;87;21136;-57
2021/12/08 01:20:18;;;;;;;24.00;14.80;;;;;;;0.54;68.47;93800.22;1621014;87;21191;-57
2021/12/08 01:22:45;;;;;;;22.22;14.20;;;;;;;0.54;69.02;93785.34;1626850;87;21225;-57
2021/12/08 01:25:12;;;;;;;22.05;13.32;;;;;;;0.65;68.87;93781.91;1645875;87;21629;-57
2021/12/08 01:27:39;;;;;;;23.30;15.83;;;;;;;0.73;69.03;93782.55;1646325;86;21175;-57
2021/12/08 01:30:09;;;;;;;80.30;41.00;;;;;;;0.90;68.97;93789.08;1645493;86;21054;-57
2021/12/08 01:32:35;;;;;;;37.90;20.92;;;;;;;1.07;68.46;93788.05;1646260;87;21546;-57
2021/12/08 01:35:04;;;;;;;43.98;24.40;;;;;;;1.20;67.77;93786.89;1646502;86;21590;-57
2021/12/08 01:37:31;;;;;;;46.18;22.65;;;;;;;1.19;67.18;93791.55;1646634;86;21067;-57
2021/12/08 01:39:58;;;;;;;37.38;20.20;;;;;;;1.06;66.93;93791.94;1646503;86;21171;-57
2021/12/08 01:42:36;;;;;;;26.95;16.65;;;;;;;0.91;66.89;93788.48;1646090;86;21012;-57
2021/12/08 01:47:42;;;;;;;31.85;19.67;;;;;;;0.74;66.76;93802.45;1646169;87;21764;-56
2021/12/08 01:50:10;;;;;;;36.42;19.30;;;;;;;0.61;66.64;93800.71;1626281;87;21557;-57
2021/12/08 01:52:37;;;;;;;46.28;22.30;;;;;;;0.50;67.20;93804.91;1640440;86;21173;-56
2021/12/08 01:55:06;;;;;;;53.87;26.17;;;;;;;0.47;67.14;93801.67;1636938;85;21048;-57
2021/12/08 01:57:33;;;;;;;36.15;18.27;;;;;;;0.48;67.53;93805.13;1619408;87;21099;-56
2021/12/08 01:59:59;;;;;;;43.25;22.52;;;;;;;0.59;67.23;93805.77;1618536;87;21091;-56
2021/12/08 02:02:26;;;;;;;49.42;24.57;;;;;;;0.53;67.14;93801.96;1617374;87;21409;-57
2021/12/08 02:04:53;;;;;;;40.92;20.82;;;;;;;0.43;67.29;93809.05;1679327;83;21145;-57
2021/12/08 02:07:20;;;;;;;37.75;19.35;;;;;;;0.44;67.56;93809.22;1644895;86;21135;-56
2021/12/08 02:09:46;;;;;;;31.85;17.20;;;;;;;0.49;67.54;93811.50;1624952;87;21166;-56
2021/12/08 02:12:13;;;;;;;39.15;18.95;;;;;;;0.47;67.36;93807.66;1629511;87;21116;-57
2021/12/08 02:14:40;;;;;;;38.45;18.35;;;;;;;0.39;67.39;93810.28;1634346;86;21666;-56
2021/12/08 02:17:10;;;;;;;23.20;14.65;;;;;;;0.25;67.47;93799.02;1619486;87;21198;-56
2021/12/08 02:19:39;;;;;;;28.98;16.85;;;;;;;0.11;67.81;93788.40;1625795;86;21056;-58
2021/12/08 02:22:06;;;;;;;24.00;15.28;;;;;;;-0.02;68.29;93783.14;1618645;86;21102;-56
2021/12/08 02:24:32;;;;;;;28.07;16.52;;;;;;;0.00;68.64;93786.39;1692512;83;21495;-63
2021/12/08 02:26:59;;;;;;;28.27;16.67;;;;;;;0.02;68.46;93779.99;1688292;83;21518;-57
2021/12/08 02:29:38;;;;;;;32.73;19.73;;;;;;;-0.03;68.61;93776.21;1685543;83;21821;-57
2021/12/08 02:32:08;;;;;;;32.42;17.52;;;;;;;-0.11;68.65;93775.52;1670167;83;21057;-56
2021/12/08 02:48:15;;;;;;;35.98;19.23;;;;;;;0.15;68.99;93758.02;1688735;84;21288;-58
2021/12/08 02:50:43;;;;;;;29.82;18.20;;;;;;;0.18;68.75;93751.02;1689704;83;21061;-58
2021/12/08 02:53:12;;;;;;;26.50;16.15;;;;;;;0.23;69.11;93761.41;1675866;83;21064;-57
2021/12/08 02:55:39;;;;;;;23.75;14.70;;;;;;;0.40;68.87;93756.36;1619149;87;21097;-56
2021/12/08 02:58:07;;;;;;;21.40;14.13;;;;;;;0.47;68.22;93746.22;1619887;87;21081;-58
2021/12/08 03:00:41;;;;;;;28.73;17.82;;;;;;;0.41;68.54;93758.64;1619807;87;21085;-57
2021/12/08 03:03:09;;;;;;;40.78;18.85;;;;;;;0.54;68.48;93756.93;1622453;87;21167;-57
2021/12/08 03:05:35;;;;;;;41.05;21.73;;;;;;;0.56;67.90;93749.17;1635441;87;21592;-56
2021/12/08 03:08:04;;;;;;;31.93;19.37;;;;;;;0.53;67.98;93749.98;1657093;85;21236;-57
2021/12/08 03:10:35;;;;;;;66.60;32.23;;;;;;;0.56;68.03;93751.13;1664009;85;21059;-56
2021/12/08 03:13:03;;;;;;;64.03;32.42;;;;;;;0.49;67.82;93751.20;1620291;87;21083;-57
2021/12/08 03:15:31;;;;;;;44.88;25.70;;;;;;;0.41;67.85;93748.42;1619838;86;21052;-56
2021/12/08 03:17:58;;;;;;;36.13;19.40;;;;;;;0.41;68.16;93751.87;1682673;85;21057;-56
2021/12/08 03:20:39;;;;;;;29.80;16.37;;;;;;;0.46;68.14;93762.27;1677843;83;21778;-57
2021/12/08 03:23:00;;;;;;;24.57;15.40;;;;;;;0.49;68.04;93766.86;1641626;84;20998;-57
2021/12/08 03:25:24;;;;;;;26.97;14.68;;;;;;;0.50;68.27;93759.50;1617544;87;21502;-58
2021/12/08 03:28:04;;;;;;;26.95;16.57;;;;;;;0.56;67.70;93770.81;1677798;84;21084;-57
2021/12/08 03:30:29;;;;;;;25.90;16.65;;;;;;;0.47;67.61;93780.03;1694910;84;21105;-57
2021/12/08 03:32:55;;;;;;;32.00;17.87;;;;;;;0.47;67.73;93771.13;1685079;84;22488;-57
2021/12/08 03:35:17;;;;;;;45.92;26.25;;;;;;;0.44;67.88;93779.47;1672582;84;21487;-57
2021/12/08 03:37:45;;;;;;;37.78;22.22;;;;;;;0.44;67.87;93779.47;1686314;83;21060;-57
2021/12/08 03:40:16;;;;;;;32.67;20.02;;;;;;;0.43;67.91;93786.65;1681898;84;21341;-57
2021/12/08 03:42:44;;;;;;;30.48;16.62;;;;;;;0.42;68.25;93779.70;1679789;84;21552;-59
2021/12/08 03:45:18;;;;;;;32.10;18.23;;;;;;;0.45;67.98;93778.89;1686444;83;21141;-56
2021/12/08 03:47:48;;;;;;;36.15;23.02;;;;;;;0.40;68.13;93778.75;1678223;84;21042;-55
2021/12/08 03:50:17;;;;;;;28.52;18.90;;;;;;;0.46;68.19;93779.85;1690963;84;21052;-57
2021/12/08 03:52:45;;;;;;;42.73;20.52;;;;;;;0.57;67.98;93786.47;1684174;83;21101;-57
2021/12/08 03:55:14;;;;;;;29.77;19.85;;;;;;;0.58;67.78;93788.75;1685461;84;21060;-57
2021/12/08 03:57:41;;;;;;;44.77;24.25;;;;;;;0.67;67.56;93785.55;1695937;84;21152;-58
2021/12/08 04:00:12;;;;;;;43.15;24.12;;;;;;;0.72;67.15;93787.78;1688842;84;21044;-56
2021/12/08 04:02:40;;;;;;;36.93;21.23;;;;;;;0.69;66.89;93782.63;1685075;84;21091;-56
2021/12/08 04:05:07;;;;;;;37.05;20.05;;;;;;;0.68;66.63;93778.38;1670659;84;21178;-57
2021/12/08 04:07:42;;;;;;;49.33;24.50;;;;;;;0.61;66.66;93785.23;1681796;84;21050;-56
2021/12/08 04:10:06;;;;;;;43.63;23.47;;;;;;;0.58;66.56;93781.98;1694125;83;21165;-57
2021/12/08 04:12:34;;;;;;;40.05;21.55;;;;;;;0.59;66.46;93788.93;1683241;84;21017;-57
2021/12/08 04:15:03;;;;;;;35.73;20.97;;;;;;;0.54;66.36;93784.55;1683876;83;21094;-58
2021/12/08 04:17:40;;;;;;;30.12;20.23;;;;;;;0.43;66.27;93786.05;1668534;84;21066;-58
2021/12/08 04:20:15;;;;;;;35.08;20.55;;;;;;;0.40;66.52;93791.52;1680929;84;21600;-57
2021/12/08 04:22:44;;;;;;;35.35;21.33;;;;;;;0.43;66.27;93787.40;1690800;83;21092;-57
2021/12/08 04:25:27;;;;;;;63.17;28.10;;;;;;;0.39;66.42;93786.69;1683756;83;21105;-56
2021/12/08 04:27:56;;;;;;;56.05;25.62;;;;;;;0.38;66.42;93791.91;1694961;83;21126;-57
2021/12/08 04:30:37;;;;;;;41.83;21.00;;;;;;;0.38;66.65;93786.51;1705162;84;20983;-57
2021/12/08 04:33:04;;;;;;;34.55;18.57;;;;;;;0.48;66.27;93785.62;1699805;83;21051;-57
2021/12/08 04:35:31;;;;;;;25.00;14.63;;;;;;;0.48;66.35;93785.62;1703988;83;21144;-58
2021/12/08 04:38:04;;;;;;;18.20;12.63;;;;;;;0.56;66.37;93789.75;1683653;83;21082;-56
2021/12/08 04:40:51;;;;;;;16.25;12.18;;;;;;;0.66;66.08;93790.78;1681516;83;21066;-57
2021/12/08 04:43:18;;;;;;;18.55;12.03;;;;;;;0.71;65.93;93796.51;1685637;83;21050;-57
2021/12/08 04:45:54;;;;;;;18.30;12.85;;;;;;;0.76;65.49;93790.63;1688134;83;21082;-57
2021/12/08 04:48:47;;;;;;;20.02;12.75;;;;;;;0.76;65.36;93793.34;1693732;83;21613;-56
2021/12/08 04:54:04;;;;;;;28.02;13.85;;;;;;;0.89;64.98;93790.83;1691292;83;21629;-56
2021/12/08 05:02:04;;;;;;;44.45;23.50;;;;;;;0.49;65.10;93788.50;1707827;83;21115;-58
2021/12/08 05:09:53;;;;;;;;;;;;;;;0.21;66.01;93787.48;1709750;83;21011;-56
2021/12/08 05:12:23;;;;;;;22.87;15.20;;;;;;;0.17;66.45;93777.31;1708014;84;20166;-57
2021/12/08 05:14:55;;;;;;;28.40;15.65;;;;;;;0.15;66.46;93781.58;1687800;84;21283;-60
2021/12/08 05:17:26;;;;;;;31.68;19.27;;;;;;;0.11;66.67;93777.59;1708599;83;21042;-57
2021/12/08 05:19:56;;;;;;;27.30;17.95;;;;;;;0.13;66.75;93777.95;1708647;83;21117;-60
2021/12/08 05:22:31;;;;;;;32.63;20.02;;;;;;;0.10;66.94;93782.03;1707717;83;20985;-58
2021/12/08 05:24:59;;;;;;;33.10;18.52;;;;;;;0.15;66.92;93789.12;1697237;83;21238;-59
2021/12/08 05:27:40;;;;;;;28.10;16.75;;;;;;;0.06;66.91;93781.31;1688044;83;21156;-58
2021/12/08 05:30:19;;;;;;;30.27;17.73;;;;;;;-0.06;67.14;93784.53;1683366;83;21061;-57
2021/12/08 05:32:48;;;;;;;34.83;20.27;;;;;;;-0.10;67.38;93789.78;1686750;83;21093;-57
2021/12/08 05:35:16;;;;;;;29.45;17.65;;;;;;;-0.14;67.51;93795.25;1679464;83;21061;-58
2021/12/08 05:37:42;;;;;;;23.42;14.87;;;;;;;-0.09;67.64;93792.66;1661686;85;21053;-57
2021/12/08 05:40:14;;;;;;;36.95;22.87;;;;;;;-0.11;67.59;93795.01;1645870;86;21873;-57
2021/12/08 05:42:41;;;;;;;37.35;21.00;;;;;;;-0.17;67.93;93795.28;1621934;87;21079;-58
2021/12/08 05:45:14;;;;;;;27.13;17.10;;;;;;;-0.18;67.99;93797.80;1618813;87;21076;-57
2021/12/08 05:47:41;;;;;;;34.43;20.08;;;;;;;-0.20;68.08;93798.78;1621914;87;21193;-56
2021/12/08 05:50:09;;;;;;;39.23;21.80;;;;;;;-0.22;68.14;93798.42;1613576;87;21032;-57
2021/12/08 05:52:36;;;;;;;38.58;22.10;;;;;;;-0.27;68.25;93806.95;1636397;86;21806;-58
2021/12/08 05:55:06;;;;;;;32.45;20.37;;;;;;;-0.24;68.39;93798.06;1645332;86;21008;-57
2021/12/08 05:57:38;;;;;;;29.55;18.37;;;;;;;-0.20;68.27;93792.03;1679601;84;21051;-56
2021/12/08 06:00:09;;;;;;;31.62;19.77;;;;;;;-0.16;68.18;93796.23;1681081;84;21136;-56
2021/12/08 06:02:39;;;;;;;36.65;20.40;;;;;;;-0.09;68.12;93792.66;1680938;84;22164;-55
2021/12/08 06:05:07;;;;;;;34.73;21.45;;;;;;;-0.04;67.90;93791.64;1671725;84;21703;-56
2021/12/08 06:07:34;;;;;;;32.30;21.10;;;;;;;-0.09;67.93;93787.27;1693327;84;21044;-55
2021/12/08 06:10:08;;;;;;;31.95;20.52;;;;;;;-0.01;68.21;93796.24;1673465;84;21101;-57
2021/12/08 06:12:35;;;;;;;37.50;22.65;;;;;;;0.18;67.83;93796.98;1693637;84;21055;-57
2021/12/08 06:15:06;;;;;;;41.88;23.10;;;;;;;0.26;67.39;93795.15;1677209;84;21019;-57
2021/12/08 06:17:33;;;;;;;37.25;22.67;;;;;;;0.34;67.17;93796.61;1682535;84;21153;-56
2021/12/08 06:20:00;;;;;;;33.60;20.95;;;;;;;0.38;66.95;93796.58;1684589;84;21045;-57
2021/12/08 06:22:27;;;;;;;37.17;21.45;;;;;;;0.41;66.48;93797.86;1674733;84;21064;-56
2021/12/08 06:24:53;;;;;;;68.60;32.53;;;;;;;0.33;66.34;93797.00;1699658;84;21451;-58
2021/12/08 06:27:20;;;;;;;57.73;33.00;;;;;;;0.16;66.38;93814.98;1682589;84;21485;-57
2021/12/08 06:29:48;;;;;;;54.27;30.57;;;;;;;0.03;66.81;93809.91;1672766;84;21035;-56
2021/12/08 06:32:15;;;;;;;43.50;26.42;;;;;;;0.02;67.33;93805.67;1629677;84;21067;-58
2021/12/08 06:34:46;;;;;;;44.30;25.40;;;;;;;0.03;67.20;93811.26;1621829;87;21108;-59
2021/12/08 06:37:21;;;;;;;55.60;30.25;;;;;;;-0.01;67.35;93811.11;1617736;87;21626;-56
2021/12/08 06:39:59;;;;;;;72.15;34.58;;;;;;;-0.03;67.57;93801.29;1619092;86;21578;-56
2021/12/08 06:42:29;;;;;;;62.08;32.65;;;;;;;-0.01;67.47;93805.13;1621289;86;21191;-57
2021/12/08 06:44:56;;;;;;;74.75;39.85;;;;;;;-0.02;67.39;93803.42;1679507;83;21105;-57
2021/12/08 06:47:26;;;;;;;65.80;37.88;;;;;;;-0.05;67.32;93803.63;1666187;82;21027;-58
2021/12/08 06:49:56;;;;;;;75.32;43.40;;;;;;;-0.09;67.46;93810.23;1715552;82;21104;-57
2021/12/08 06:52:30;;;;;;;68.97;37.28;;;;;;;-0.16;67.66;93820.56;1710639;82;21095;-56
2021/12/08 06:55:20;;;;;;;70.08;38.90;;;;;;;-0.22;68.01;93815.98;1664428;83;21885;-56
2021/12/08 06:57:52;;;;;;;57.55;31.20;;;;;;;-0.22;68.18;93820.04;1702151;82;21014;-57
2021/12/08 07:00:54;;;;;;;52.15;28.70;;;;;;;-0.13;68.16;93814.91;1689243;83;21056;-56
2021/12/08 07:06:04;;;;;;;39.70;24.07;;;;;;;-0.12;68.04;93821.86;1686783;82;21569;-56
2021/12/08 07:08:40;;;;;;;59.35;31.85;;;;;;;-0.16;68.06;93825.96;1694470;82;22346;-57
2021/12/08 07:11:11;;;;;;;69.12;38.20;;;;;;;-0.17;68.31;93819.59;1693809;82;21892;-58
2021/12/08 07:13:38;;;;;;;70.42;38.38;;;;;;;-0.10;68.37;93811.41;1665632;82;21648;-56
2021/12/08 07:16:15;;;;;;;56.20;31.82;;;;;;;-0.07;68.27;93825.49;1711732;82;21196;-58
2021/12/08 07:18:53;;;;;;;72.53;41.48;;;;;;;0.03;68.47;93831.53;1710786;82;21066;-57
2021/12/08 07:21:17;;;;;;;72.70;42.13;;;;;;;0.15;68.13;93816.73;1704110;82;21116;-55
2021/12/08 07:23:50;;;;;;;70.52;39.90;;;;;;;0.20;67.96;93814.95;1665616;82;21174;-59
2021/12/08 07:26:20;;;;;;;54.05;30.27;;;;;;;0.33;68.01;93810.52;1683590;82;22095;-58
2021/12/08 07:28:47;;;;;;;58.45;32.45;;;;;;;0.43;67.44;93809.05;1691735;81;21037;-56
2021/12/08 07:31:19;;;;;;;45.58;26.75;;;;;;;0.51;67.20;93806.44;1617585;84;21116;-58
2021/12/08 07:33:47;;;;;;;58.30;34.45;;;;;;;0.58;66.96;93810.39;1688579;81;22881;-61
2021/12/08 07:36:17;;;;;;;65.60;32.42;;;;;;;0.61;66.95;93812.28;1693520;81;21010;-58
2021/12/08 07:38:47;;;;;;;57.95;30.17;;;;;;;0.68;66.76;93811.43;1682890;81;21065;-57
2021/12/08 07:41:26;;;;;;;55.17;30.37;;;;;;;0.71;66.62;93813.31;1689907;81;21009;-59
2021/12/08 07:43:55;;;;;;;47.25;24.85;;;;;;;0.70;66.63;93815.84;1697125;82;20987;-60
2021/12/08 07:46:32;;;;;;;41.02;24.32;;;;;;;0.76;66.40;93821.00;1663110;82;21437;-57
2021/12/08 07:49:06;;;;;;;40.30;22.75;;;;;;;0.87;65.83;93820.25;1690669;82;21042;-58
2021/12/08 07:51:55;;;;;;;46.18;26.62;;;;;;;0.90;65.73;93825.63;1692908;82;21001;-58
2021/12/08 07:54:22;;;;;;;39.90;24.30;;;;;;;0.96;65.70;93821.88;1682513;81;21573;-60
2021/12/08 07:56:52;;;;;;;32.17;19.98;;;;;;;1.01;65.38;93826.25;1693346;82;20995;-59
2021/12/08 07:59:20;;;;;;;39.83;22.42;;;;;;;0.97;65.40;93834.98;1690848;82;21773;-59
2021/12/08 08:01:51;;;;;;;48.15;28.23;;;;;;;0.92;65.31;93838.77;1664298;81;21067;-58
2021/12/08 08:04:21;;;;;;;55.28;32.80;;;;;;;0.93;65.55;93836.98;1692461;82;21013;-60
2021/12/08 08:06:52;;;;;;;51.40;28.32;;;;;;;0.97;65.70;93817.39;1694676;82;21017;-58
2021/12/08 08:09:27;;;;;;;45.05;28.12;;;;;;;1.01;65.78;93826.25;1691253;82;21012;-59
2021/12/08 08:12:00;;;;;;;50.43;29.72;;;;;;;1.16;65.43;93825.45;1696658;81;21549;-59
2021/12/08 08:14:38;;;;;;;48.73;29.75;;;;;;;1.20;65.15;93820.74;1670012;83;21505;-54
2021/12/08 08:17:04;;;;;;;51.23;29.10;;;;;;;1.26;65.28;93809.61;1699036;82;21062;-62
2021/12/08 08:19:32;;;;;;;58.95;33.58;;;;;;;1.44;64.97;93810.09;1706704;82;21066;-59
2021/12/08 08:22:05;;;;;;;68.12;39.98;;;;;;;1.54;64.63;93804.50;1676400;83;21096;-59
2021/12/08 08:24:32;;;;;;;56.18;31.57;;;;;;;1.65;64.48;93791.55;1702739;83;21119;-56
2021/12/08 08:27:00;;;;;;;61.88;34.92;;;;;;;1.73;64.05;93787.52;1697523;82;21192;-55
2021/12/08 08:29:27;;;;;;;83.10;47.33;;;;;;;1.68;63.68;93796.14;1696913;82;21086;-56
2021/12/08 08:31:59;;;;;;;57.00;33.28;;;;;;;1.69;63.58;93791.50;1696496;82;21040;-56
2021/12/08 08:34:30;;;;;;;47.27;28.50;;;;;;;1.71;63.38;93799.38;1704417;82;21073;-56
2021/12/08 08:36:57;;;;;;;46.30;26.85;;;;;;;1.71;63.49;93798.02;1705311;82;22010;-54
2021/12/08 08:39:31;;;;;;;41.02;23.85;;;;;;;1.76;63.27;93797.56;1697562;82;21089;-53
2021/12/08 08:42:16;;;;;;;47.90;29.07;;;;;;;1.72;63.38;93796.09;1682893;83;21041;-56
2021/12/08 08:44:58;;;;;;;62.75;39.15;;;;;;;1.67;63.37;93792.50;1700392;83;21996;-52
2021/12/08 08:47:32;;;;;;;51.33;30.97;;;;;;;1.66;63.41;93774.11;1704450;82;21025;-57
2021/12/08 08:49:59;;;;;;;48.58;27.65;;;;;;;1.64;63.41;93771.05;1717015;82;21111;-56
2021/12/08 08:52:43;;;;;;;55.08;30.23;;;;;;;1.62;63.87;93781.54;1707242;83;21781;-54
2021/12/08 08:55:21;;;;;;;57.33;32.05;;;;;;;1.80;63.77;93773.86;1683116;83;21057;-53
2021/12/08 08:57:49;;;;;;;50.40;26.75;;;;;;;2.00;63.13;93770.58;1700972;82;21125;-56
2021/12/08 09:00:34;;;;;;;51.53;27.75;;;;;;;2.13;62.68;93771.50;1685177;82;21122;-60
2021/12/08 09:03:06;;;;;;;49.63;28.27;;;;;;;2.12;62.59;93769.97;1660487;82;21482;-57
2021/12/08 09:05:38;;;;;;;51.63;32.98;;;;;;;2.10;62.85;93762.84;1710057;83;21537;-57
2021/12/08 09:08:06;;;;;;;47.43;26.02;;;;;;;2.08;62.84;93754.33;1684479;82;21077;-55
2021/12/08 09:10:42;;;;;;;39.33;24.45;;;;;;;2.12;62.84;93752.34;1692346;82;21129;-57
2021/12/08 09:13:16;;;;;;;39.45;24.67;;;;;;;2.24;62.54;93753.83;1685181;82;20999;-58
2021/12/08 09:15:57;;;;;;;44.25;27.62;;;;;;;2.34;62.48;93745.30;1688025;82;27004;-58
2021/12/08 09:18:46;;;;;;;40.85;25.43;;;;;;;2.54;61.78;93746.78;1688011;81;21053;-57
2021/12/08 09:21:18;;;;;;;36.83;23.38;;;;;;;2.67;61.17;93730.64;1691262;81;20976;-59
2021/12/08 09:24:08;;;;;;;44.58;24.60;;;;;;;2.80;60.76;93728.19;1667623;82;22437;-58
2021/12/08 09:26:39;;;;;;;31.02;18.67;;;;;;;2.93;60.63;93729.64;1690521;81;22273;-57
2021/12/08 09:29:12;;;;;;;37.13;22.73;;;;;;;3.00;60.03;93731.61;1686953;82;21126;-57
2021/12/08 09:31:44;;;;;;;44.93;26.95;;;;;;;3.01;59.78;93722.84;1680611;81;21006;-58
2021/12/08 09:34:21;;;;;;;56.45;29.67;;;;;;;3.00;59.84;93724.04;1691134;81;21594;-59
2021/12/08 09:36:52;;;;;;;70.12;37.98;;;;;;;2.91;59.88;93718.44;1681154;82;21064;-58
2021/12/08 09:39:33;;;;;;;50.92;30.37;;;;;;;2.86;60.20;93716.24;1687852;82;21017;-58
2021/12/08 09:42:11;;;;;;;52.80;28.10;;;;;;;2.82;60.41;93708.75;1684294;82;21802;-57
2021/12/08 09:44:46;;;;;;;44.98;26.55;;;;;;;2.84;60.72;93702.33;1685554;82;21049;-57
2021/12/08 09:47:14;;;;;;;63.55;33.90;;;;;;;3.00;60.61;93703.66;1691100;82;21005;-56
2021/12/08 09:49:41;;;;;;;73.45;35.85;;;;;;;3.12;60.20;93711.92;1695304;81;21014;-58
2021/12/08 09:52:09;;;;;;;70.90;36.42;;;;;;;3.20;59.60;93703.77;1663233;82;20926;-57
2021/12/08 09:54:39;;;;;;;50.98;30.05;;;;;;;3.26;59.47;93702.05;1687407;81;22705;-59
2021/12/08 09:57:11;;;;;;;54.05;31.80;;;;;;;3.29;59.20;93696.37;1669282;82;20989;-63
2021/12/08 09:59:37;;;;;;;56.02;33.25;;;;;;;3.20;58.76;93694.86;1690408;82;20987;-59
2021/12/08 10:02:08;;;;;;;39.65;23.73;;;;;;;3.22;58.86;93693.84;1671182;82;21028;-61
2021/12/08 10:04:35;;;;;;;28.15;18.40;;;;;;;3.35;58.43;93686.50;1665994;82;21475;-58
2021/12/08 10:07:04;;;;;;;35.40;21.95;;;;;;;3.30;58.04;93684.31;1676005;82;21075;-56
2021/12/08 10:09:31;;;;;;;31.17;18.85;;;;;;;3.32;57.74;93688.72;1693736;81;20996;-58
2021/12/08 10:11:58;;;;;;;25.88;18.12;;;;;;;3.48;57.37;93691.59;1685989;82;21021;-56
2021/12/08 10:14:25;;;;;;;24.30;16.10;;;;;;;3.59;56.68;93693.45;1685307;82;21093;-58
2021/12/08 10:16:53;;;;;;;33.42;20.88;;;;;;;3.59;56.12;93686.65;1665686;81;21126;-57
2021/12/08 10:19:20;;;;;;;28.10;18.65;;;;;;;3.62;55.93;93687.15;1693117;81;21138;-58
2021/12/08 10:21:47;;;;;;;25.90;18.85;;;;;;;3.66;55.83;93683.73;1634231;83;21518;-57
2021/12/08 10:24:23;;;;;;;23.52;17.20;;;;;;;3.64;55.72;93688.84;1657886;83;20987;-60
2021/12/08 10:26:55;;;;;;;33.75;20.48;;;;;;;3.60;56.24;93683.31;1667161;84;21134;-61
2021/12/08 10:29:25;;;;;;;42.15;24.90;;;;;;;3.64;56.30;93679.32;1643854;86;21140;-59
2021/12/08 10:31:54;;;;;;;47.23;28.98;;;;;;;3.54;56.31;93672.20;1648836;85;21257;-63
2021/12/08 10:34:25;;;;;;;39.60;26.50;;;;;;;3.59;56.48;93672.27;1649602;85;21537;-64
2021/12/08 10:37:10;;;;;;;44.25;27.87;;;;;;;3.78;56.33;93666.71;1648895;85;21050;-58
2021/12/08 10:39:46;;;;;;;48.73;30.30;;;;;;;3.91;56.28;93674.30;1628351;86;21097;-60
2021/12/08 10:42:28;;;;;;;35.05;21.90;;;;;;;4.10;56.47;93670.68;1680699;82;21561;-61
2021/12/08 10:45:12;;;;;;;35.55;20.50;;;;;;;4.17;55.38;93671.05;1692309;82;21415;-65
2021/12/08 10:47:51;;;;;;;33.42;22.50;;;;;;;4.03;55.38;93668.14;1712116;82;21002;-59
2021/12/08 10:56:10;;;;;;;41.65;28.17;;;;;;;3.97;54.85;93650.83;1703827;82;21058;-64
2021/12/08 10:58:40;;;;;;;36.05;23.45;;;;;;;3.81;55.40;93658.27;1708727;82;21128;-59
2021/12/08 11:01:16;;;;;;;43.23;26.30;;;;;;;3.75;55.77;93663.50;1660263;84;21098;-60
2021/12/08 11:03:44;;;;;;;43.63;24.70;;;;;;;3.53;56.13;93662.52;1655737;85;21023;-60
2021/12/08 11:06:15;;;;;;;43.60;27.45;;;;;;;3.46;56.63;93661.19;1619704;86;21061;-59
2021/12/08 11:08:44;;;;;;;51.42;30.50;;;;;;;3.33;57.07;93660.34;1619916;86;21651;-61
2021/12/08 11:11:20;;;;;;;47.43;30.32;;;;;;;3.33;57.30;93653.55;1641526;86;21861;-59
2021/12/08 11:13:56;;;;;;;44.98;28.40;;;;;;;3.41;57.37;93661.09;1633844;87;21198;-58
2021/12/08 11:16:33;;;;;;;43.17;28.57;;;;;;;3.51;56.88;93649.95;1621830;86;21050;-60
2021/12/08 11:19:10;;;;;;;46.85;29.02;;;;;;;3.45;57.31;93654.22;1704705;82;21061;-58
2021/12/08 11:21:46;;;;;;;50.90;31.27;;;;;;;3.42;57.58;93652.37;1688053;83;22305;-60
2021/12/08 11:24:21;;;;;;;60.60;36.95;;;;;;;3.37;58.24;93659.08;1696991;82;21095;-61
2021/12/08 11:26:48;;;;;;;68.55;36.85;;;;;;;3.44;58.47;93656.77;1684173;83;21068;-62
2021/12/08 11:29:23;;;;;;;63.60;38.75;;;;;;;3.58;58.39;93656.58;1648954;84;21052;-62
2021/12/08 11:32:06;;;;;;;60.98;36.93;;;;;;;3.64;58.55;93656.20;1690040;83;21059;-58
2021/12/08 11:34:38;;;;;;;57.00;35.33;;;;;;;3.65;58.45;93645.50;1687637;83;20992;-62
2021/12/08 11:37:14;;;;;;;51.13;31.97;;;;;;;3.53;58.72;93647.56;1687574;82;21153;-59
2021/12/08 11:39:45;;;;;;;57.48;33.70;;;;;;;3.44;59.16;93650.73;1723914;82;21018;-61
2021/12/08 11:42:24;;;;;;;49.55;28.23;;;;;;;3.40;59.41;93651.42;1723140;82;21026;-59
2021/12/08 11:44:55;;;;;;;47.43;28.30;;;;;;;3.38;59.59;93646.27;1719980;82;21038;-59
2021/12/08 11:47:31;;;;;;;48.38;28.77;;;;;;;3.31;59.72;93647.78;1718122;82;21034;-60
2021/12/08 11:50:02;;;;;;;69.62;39.73;;;;;;;3.24;60.11;93646.63;1710705;82;21146;-60
2021/12/08 11:52:32;;;;;;;69.90;41.15;;;;;;;3.21;60.19;93644.77;1670496;83;21012;-59
2021/12/08 11:55:10;;;;;;;59.48;37.38;;;;;;;3.32;60.19;93643.30;1671394;85;21104;-59
2021/12/08 11:57:42;;;;;;;49.40;33.23;;;;;;;3.45;60.19;93637.91;1691956;83;21107;-59
2021/12/08 12:00:24;;;;;;;56.48;35.75;;;;;;;3.52;60.23;93639.85;1714227;82;21065;-60
2021/12/08 12:03:10;;;;;;;46.65;29.87;;;;;;;3.57;60.30;93640.68;1704948;82;21084;-58
2021/12/08 12:05:43;;;;;;;49.08;29.20;;;;;;;3.64;60.42;93637.17;1724090;82;21074;-59
2021/12/08 12:08:13;;;;;;;59.35;33.70;;;;;;;3.63;60.33;93639.73;1710103;82;21017;-59
2021/12/08 12:10:47;;;;;;;74.65;40.83;;;;;;;3.55;60.32;93635.66;1697397;83;21018;-58
2021/12/08 12:13:15;;;;;;;69.92;40.25;;;;;;;3.51;60.69;93637.72;1700847;82;21486;-58
2021/12/08 12:15:47;;;;;;;66.70;37.25;;;;;;;3.53;60.77;93635.33;1723118;81;21640;-60
2021/12/08 12:18:18;;;;;;;50.35;29.35;;;;;;;3.62;60.83;93634.70;1699817;83;21090;-61
2021/12/08 12:20:57;;;;;;;40.73;25.60;;;;;;;3.77;60.74;93636.63;1664726;84;21064;-60
2021/12/08 12:23:58;;;;;;;44.10;27.93;;;;;;;3.92;60.13;93640.48;1692054;83;21535;-62